Lemoine Town, Louisiana
Current Conditions -  °F | °C
As of 4:53 PM on Wednesday 22 Oct 2014 (Local Time) from KESF Reporting Station
Clear Clear  
Wind Chill: 77°   Ceiling: Unl
Heat Index: 78°   Visibility: 10mi
Dew Point: 51°   Wind: 6mph
Humidity: 40%   Direction: 50°NE
Pressure: 30.07"   Gusts: NA
Location:  31.0386°N, 91.9871°W
Report Text: KESF 222153Z AUTO 05005KT 10SM CLR 25/11 A3007 RMK AO2 SLP180 T02500106
Loading
Personal Weather Stations






























Interactive Weather Map
Tropical Storm Tracking
New forecast layout! Learn more

10-Day Weather Forecast

Advertisements
Track Severe Weather on mobile